Front Royal, Virginia
Current Conditions -  °F | °C
As of 3:15 PM on Sunday 25 Jan 2015 (Local Time) from KFRR Reporting Station
Overcast Overcast  
Wind Chill: 43°   Ceiling: 7000
Heat Index: 43°   Visibility: 10mi
Dew Point: 32°   Wind: 3mph
Humidity: 66%   Direction: 210°SSW
Pressure: 29.78"   Gusts: NA
Location:  38.92°N, 78.19°W
Report Text: KFRR 252015Z AUTO 21003KT 10SM SCT050 OVC070 06/00 A2978 RMK AO1
Loading
Personal Weather Stations






























Interactive Weather Map New forecast layout! Learn more

10-Day Weather Forecast

Advertisements
Track Severe Weather on mobile